ADDS METAR Data INFO
IDs: Format: Raw Decoded Include TAF

Data at: 1054 UTC 19 Oct 2017

KY70 191033Z AUTO 24009KT 10SM CLR 13/08 A3001 RMK AO2 T01260075
KY70 191013Z AUTO 23011G16KT 10SM CLR 13/08 A3000 RMK AO2 T01300075
KY70 190956Z AUTO 23011G16KT 10SM CLR 13/07 A2999 RMK AO2 T01340073
KY70 190933Z AUTO 23013G18KT 10SM CLR 14/07 A2999 RMK AO2 T01350072
KY70 190913Z AUTO 23012G17KT 10SM CLR 14/07 A2999 RMK AO2 T01350070
KY70 190856Z AUTO 22012KT 10SM CLR 14/07 A2999 RMK AO2 T01350070
KY70 190833Z AUTO 22013G18KT 10SM CLR 14/07 A2999 RMK AO2 T01380068
KY70 190813Z AUTO 22010KT 10SM CLR 14/07 A2999 RMK AO2 T01390067
KY70 190756Z AUTO 22012G17KT 10SM CLR 14/07 A2999 RMK AO2 T01400067
KY70 190734Z AUTO 23012KT 10SM CLR 14/07 A3000 RMK AO2 T01400065
KY70 190713Z AUTO 22012G16KT 10SM CLR 14/07 A3000 RMK AO2 T01360065
KY70 190656Z AUTO 22010KT 10SM CLR 14/06 A3000 RMK AO2 T01350062
KY70 190634Z AUTO 21011G16KT 10SM CLR 14/06 A3001 RMK AO2 T01360061
KY70 190613Z AUTO 21010G15KT 10SM CLR 14/06 A3001 RMK AO2 T01360060
KY70 190556Z AUTO 21011G15KT 10SM CLR 14/06 A3001 RMK AO2 T01390058 10155 20135 402070085
KY70 190534Z AUTO 21012KT 10SM CLR 14/06 A3002 RMK AO2 T01370057
KY70 190513Z AUTO 21011G17KT 10SM CLR 14/06 A3002 RMK AO2 T01380055
KY70 190456Z AUTO 21011G16KT 10SM CLR 14/06 A3003 RMK AO2 T01380055
KY70 190434Z AUTO 21011G15KT 10SM CLR 14/05 A3004 RMK AO2 T01360054
KY70 190413Z AUTO 21009KT 10SM CLR 14/05 A3004 RMK AO2 T01360052
KY70 190356Z AUTO 20010KT 10SM CLR 14/05 A3004 RMK AO2 T01350051
KY70 190333Z AUTO 20010KT 10SM CLR 14/05 A3004 RMK AO2 T01380050
KY70 190313Z AUTO 20008KT 10SM CLR 14/05 A3005 RMK AO2 T01360050
KY70 190256Z AUTO 20009KT 10SM CLR 14/05 A3005 RMK AO2 T01400048
KY70 190233Z AUTO 20010G15KT 10SM CLR 14/05 A3005 RMK AO2 T01440046
KY70 190213Z AUTO 20008KT 10SM CLR 14/05 A3004 RMK AO2 T01440045
KY70 190157Z AUTO 19007KT 10SM CLR 14/04 A3004 RMK AO2 T01430043
KY70 190133Z AUTO 19008KT 10SM CLR 14/04 A3004 RMK AO2 T01400041
KY70 190113Z AUTO 20008KT 10SM CLR 15/04 A3005 RMK AO2 T01460040
KY70 190057Z AUTO 21007KT 10SM CLR 15/04 A3005 RMK AO2 T01490039
KY70 190033Z AUTO 19008KT 10SM CLR 15/04 A3004 RMK AO2 T01520037
KY70 190013Z AUTO 19008KT 10SM CLR 15/04 A3004 RMK AO2 T01540038
KY70 182357Z AUTO 18007KT 10SM CLR 15/04 A3004 RMK AO2 T01530036 10207 20152
KY70 182333Z AUTO 18006KT 10SM CLR 16/03 A3004 RMK AO2 T01580034
KY70 182313Z AUTO 18009KT 10SM CLR 17/03 A3004 RMK AO2 T01660030
KY70 182257Z AUTO 19009KT 10SM CLR 17/03 A3004 RMK AO2 T01700033
KY70 182233Z AUTO 19008KT 10SM CLR 18/03 A3004 RMK AO2 T01800032
KY70 182213Z AUTO 20011G16KT 10SM CLR 19/03 A3004 RMK AO2 T01900026
KY70 182156Z AUTO 20010G18KT 10SM CLR 19/03 A3005 RMK AO2 T01930025
KY70 182133Z AUTO 20014G20KT 10SM CLR 20/02 A3005 RMK AO2 T01970023
KY70 182114Z AUTO 19016G20KT 10SM CLR 20/02 A3006 RMK AO2 T02000021
KY70 182056Z AUTO 20016G22KT 10SM CLR 20/02 A3006 RMK AO2 T02020020
KY70 182033Z AUTO 20018KT 10SM CLR 20/02 A3007 RMK AO2 T02040021
KY70 182013Z AUTO 21011G15KT 10SM CLR 21/02 A3008 RMK AO2 T02050019
KY70 181956Z AUTO 21017G22KT 10SM CLR 21/02 A3008 RMK AO2 T02050020
KY70 181934Z AUTO 21014G19KT 10SM CLR 20/03 A3009 RMK AO2 T02040026
KY70 181913Z AUTO 20017G21KT 10SM CLR 20/03 A3009 RMK AO2 T02030029
KY70 181856Z AUTO 20015G18KT 10SM CLR 20/04 A3010 RMK AO2 T02000035
KY70 181834Z AUTO 20014G19KT 10SM CLR 20/04 A3010 RMK AO2 T01990042
KY70 181813Z AUTO 19014G19KT 10SM CLR 20/04 A3011 RMK AO2 T01960043
KY70 181756Z AUTO 20014G18KT 10SM CLR 20/04 A3012 RMK AO2 T01960043 10196 20091
KY70 181733Z AUTO 21016G23KT 10SM CLR 19/04 A3013 RMK AO2 T01940039
KY70 181713Z AUTO 21015KT 10SM CLR 19/04 A3014 RMK AO2 T01910042
KY70 181656Z AUTO 22015G18KT 10SM CLR 19/04 A3015 RMK AO2 T01910042
KY70 181634Z AUTO 21012G20KT 10SM CLR 19/04 A3015 RMK AO2 T01850038
KY70 181613Z AUTO 21009KT 10SM CLR 18/04 A3016 RMK AO2 T01830044
KY70 181556Z AUTO 20010KT 10SM CLR 18/05 A3016 RMK AO2 T01790046
KY70 181534Z AUTO 20012G17KT 10SM CLR 17/05 A3017 RMK AO2 T01700046
KY70 181513Z AUTO 20012KT 10SM CLR 16/05 A3017 RMK AO2 T01610053
KY70 181456Z AUTO 21009KT 10SM CLR 15/05 A3018 RMK AO2 T01520054
KY70 181434Z AUTO 21011KT 10SM CLR 14/05 A3019 RMK AO2 T01400053
KY70 181413Z AUTO 20009KT 10SM CLR 13/05 A3019 RMK AO2 T01300052
KY70 181356Z AUTO 20010KT 10SM CLR 12/05 A3019 RMK AO2 T01210050
KY70 181333Z AUTO 20010KT 10SM CLR 11/05 A3019 RMK AO2 T01120049
KY70 181313Z AUTO 21007KT 10SM CLR 11/05 A3019 RMK AO2 T01050047
KY70 181256Z AUTO 20009KT 10SM CLR 10/05 A3018 RMK AO2 T01020045
KY70 181233Z AUTO 20008KT 10SM CLR 10/05 A3017 RMK AO2 T00950045
KY70 181213Z AUTO 20008KT 10SM CLR 09/04 A3017 RMK AO2 T00920042
KY70 181157Z AUTO 20007KT 10SM CLR 09/04 A3017 RMK AO2 T00910041 10112 20085
KY70 181133Z AUTO 20009KT 10SM CLR 09/04 A3017 RMK AO2 T00940042
KY70 181113Z AUTO 20007KT 10SM CLR 09/04 A3017 RMK AO2 T00880040
KY70 181057Z AUTO 20006KT 10SM CLR 09/04 A3017 RMK AO2 T00870040
KY70 181033Z AUTO 19005KT 10SM CLR 09/04 A3017 RMK AO2 T00870038
KY70 181013Z AUTO 20006KT 10SM CLR 10/04 A3017 RMK AO2 T00950041
KY70 180957Z AUTO 21006KT 10SM CLR 10/04 A3017 RMK AO2 T00950041
KY70 180933Z AUTO 20006KT 10SM CLR 10/04 A3017 RMK AO2 T01010040
KY70 180913Z AUTO 21006KT 10SM CLR 10/04 A3017 RMK AO2 T01000040
KY70 180857Z AUTO 22006KT 10SM CLR 10/04 A3016 RMK AO2 T01020040
KY70 180833Z AUTO 21007KT 10SM CLR 11/04 A3016 RMK AO2 T01050040
KY70 180813Z AUTO 21008KT 10SM CLR 11/04 A3016 RMK AO2 T01060041
KY70 180756Z AUTO 22007KT 10SM CLR 11/04 A3016 RMK AO2 T01050041
KY70 180733Z AUTO 22007KT 10SM CLR 11/04 A3016 RMK AO2 T01080041
KY70 180713Z AUTO 21007KT 10SM CLR 11/04 A3015 RMK AO2 T01060043
KY70 180656Z AUTO 21006KT 10SM CLR 11/04 A3015 RMK AO2 T01090043
KY70 180633Z AUTO 21008KT 10SM CLR 11/05 A3015 RMK AO2 T01100045
KY70 180613Z AUTO 21006KT 10SM CLR 11/05 A3015 RMK AO2 T01120046
KY70 180556Z AUTO 20006KT 10SM CLR 11/05 A3015 RMK AO2 T01080045 10142 20107 402090065
KY70 180533Z AUTO 20006KT 10SM CLR 11/05 A3015 RMK AO2 T01140045
KY70 180513Z AUTO 20006KT 10SM CLR 12/04 A3015 RMK AO2 T01190043
KY70 180456Z AUTO 21006KT 10SM CLR 13/05 A3015 RMK AO2 T01270045
KY70 180433Z AUTO 22005KT 10SM CLR 12/05 A3015 RMK AO2 T01200045
KY70 180414Z AUTO 22005KT 10SM CLR 12/05 A3015 RMK AO2 T01230046
KY70 180356Z AUTO 21005KT 10SM CLR 12/05 A3015 RMK AO2 T01240050
KY70 180333Z AUTO 22006KT 10SM CLR 12/05 A3015 RMK AO2 T01230052
KY70 180313Z AUTO 21006KT 10SM CLR 12/05 A3015 RMK AO2 T01220052
KY70 180256Z AUTO 20004KT 10SM CLR 13/05 A3015 RMK AO2 T01250052
KY70 180233Z AUTO 20004KT 10SM CLR 13/05 A3015 RMK AO2 T01310051
KY70 180213Z AUTO 21006KT 10SM CLR 13/05 A3015 RMK AO2 T01260052
KY70 180156Z AUTO 20005KT 10SM CLR 12/05 A3014 RMK AO2 T01190050
KY70 180133Z AUTO 19006KT 10SM CLR 12/05 A3014 RMK AO2 T01170053
KY70 180113Z AUTO 18005KT 10SM CLR 13/05 A3014 RMK AO2 T01270051
KY70 180056Z AUTO 19005KT 10SM CLR 13/05 A3014 RMK AO2 T01290051
KY70 180034Z AUTO 00000KT 10SM CLR 13/05 A3013 RMK AO2 T01250046
KY70 180013Z AUTO 22003KT 10SM CLR 14/04 A3012 RMK AO2 T01420044
KY70 172356Z AUTO 24005KT 10SM CLR 14/05 A3012 RMK AO2 T01440045 10209 20144
KY70 172333Z AUTO 25005KT 10SM CLR 15/05 A3011 RMK AO2 T01530045
KY70 172313Z AUTO 24007KT 10SM CLR 15/05 A3011 RMK AO2 T01530046
KY70 172256Z AUTO 24008KT 10SM CLR 17/04 A3010 RMK AO2 T01660043